sensor_id;sensor_type;location;lat;lon;timestamp;pressure;altitude;pressure_sealevel;temperature;humidity
64298;BME280;50639;53.270;7.956;2023-02-20T00:01:21;105172.28;;;7.10;100.00
64298;BME280;50639;53.270;7.956;2023-02-20T00:03:46;104943.44;;;7.03;100.00
64298;BME280;50639;53.270;7.956;2023-02-20T00:06:12;104947.75;;;7.05;100.00
64298;BME280;50639;53.270;7.956;2023-02-20T00:08:37;104957.59;;;7.05;100.00
64298;BME280;50639;53.270;7.956;2023-02-20T00:11:03;105062.53;;;7.10;100.00
64298;BME280;50639;53.270;7.956;2023-02-20T00:13:28;105102.47;;;7.13;100.00
64298;BME280;50639;53.270;7.956;2023-02-20T00:15:54;104970.66;;;7.09;100.00
64298;BME280;50639;53.270;7.956;2023-02-20T00:18:19;104950.94;;;7.10;100.00
64298;BME280;50639;53.270;7.956;2023-02-20T00:20:45;105019.38;;;7.14;100.00
64298;BME280;50639;53.270;7.956;2023-02-20T00:23:10;105038.03;;;7.16;100.00
64298;BME280;50639;53.270;7.956;2023-02-20T00:25:36;105055.69;;;7.18;100.00
64298;BME280;50639;53.270;7.956;2023-02-20T00:28:02;105001.31;;;7.18;100.00
64298;BME280;50639;53.270;7.956;2023-02-20T00:30:27;105100.13;;;7.21;100.00
64298;BME280;50639;53.270;7.956;2023-02-20T00:32:54;105064.41;;;7.22;100.00
64298;BME280;50639;53.270;7.956;2023-02-20T00:35:20;104921.84;;;7.18;100.00
64298;BME280;50639;53.270;7.956;2023-02-20T00:37:47;104945.84;;;7.20;100.00
64298;BME280;50639;53.270;7.956;2023-02-20T00:40:14;104934.16;;;7.21;100.00
64298;BME280;50639;53.270;7.956;2023-02-20T00:42:40;104845.06;;;7.19;100.00
64298;BME280;50639;53.270;7.956;2023-02-20T00:45:07;104877.94;;;7.21;100.00
64298;BME280;50639;53.270;7.956;2023-02-20T00:47:33;104910.81;;;7.23;100.00
64298;BME280;50639;53.270;7.956;2023-02-20T00:49:58;104892.06;;;7.23;100.00
64298;BME280;50639;53.270;7.956;2023-02-20T00:52:24;104877.75;;;7.24;100.00
64298;BME280;50639;53.270;7.956;2023-02-20T00:54:49;104936.41;;;7.27;100.00
64298;BME280;50639;53.270;7.956;2023-02-20T00:57:16;104924.75;;;7.28;100.00
64298;BME280;50639;53.270;7.956;2023-02-20T00:59:42;104818.72;;;7.25;100.00
64298;BME280;50639;53.270;7.956;2023-02-20T01:02:09;104581.06;;;7.18;100.00
64298;BME280;50639;53.270;7.956;2023-02-20T01:04:35;104627.19;;;7.21;100.00
64298;BME280;50639;53.270;7.956;2023-02-20T01:07:01;104686.69;;;7.25;100.00
64298;BME280;50639;53.270;7.956;2023-02-20T01:09:26;104803.28;;;7.29;100.00
64298;BME280;50639;53.270;7.956;2023-02-20T01:11:52;104817.44;;;7.31;100.00
64298;BME280;50639;53.270;7.956;2023-02-20T01:14:19;104885.88;;;7.35;100.00
64298;BME280;50639;53.270;7.956;2023-02-20T01:16:45;104898.19;;;7.37;100.00
64298;BME280;50639;53.270;7.956;2023-02-20T01:19:11;104923.91;;;7.40;100.00
64298;BME280;50639;53.270;7.956;2023-02-20T01:21:36;104899.81;;;7.40;100.00
64298;BME280;50639;53.270;7.956;2023-02-20T01:24:02;104924.53;;;7.43;100.00
64298;BME280;50639;53.270;7.956;2023-02-20T01:26:27;104970.81;;;7.45;100.00
64298;BME280;50639;53.270;7.956;2023-02-20T01:28:53;105060.59;;;7.51;100.00
64298;BME280;50639;53.270;7.956;2023-02-20T01:31:18;105007.03;;;7.51;100.00
64298;BME280;50639;53.270;7.956;2023-02-20T01:33:44;105095.97;;;7.56;100.00
64298;BME280;50639;53.270;7.956;2023-02-20T01:36:10;104924.00;;;7.51;100.00
64298;BME280;50639;53.270;7.956;2023-02-20T01:38:35;104861.63;;;7.49;100.00
64298;BME280;50639;53.270;7.956;2023-02-20T01:41:02;104783.22;;;7.47;100.00
64298;BME280;50639;53.270;7.956;2023-02-20T01:43:27;104785.78;;;7.48;100.00
64298;BME280;50639;53.270;7.956;2023-02-20T01:45:53;104911.34;;;7.53;100.00
64298;BME280;50639;53.270;7.956;2023-02-20T01:48:21;104873.97;;;7.51;100.00
64298;BME280;50639;53.270;7.956;2023-02-20T01:50:49;104875.56;;;7.54;100.00
64298;BME280;50639;53.270;7.956;2023-02-20T01:53:19;104911.22;;;7.54;100.00
64298;BME280;50639;53.270;7.956;2023-02-20T01:56:02;104866.56;;;7.55;100.00
64298;BME280;50639;53.270;7.956;2023-02-20T01:58:35;104764.03;;;7.53;100.00
64298;BME280;50639;53.270;7.956;2023-02-20T02:01:02;104806.78;;;7.54;100.00
64298;BME280;50639;53.270;7.956;2023-02-20T02:03:32;104776.34;;;7.55;100.00
64298;BME280;50639;53.270;7.956;2023-02-20T02:06:02;104894.84;;;7.59;100.00
64298;BME280;50639;53.270;7.956;2023-02-20T02:08:29;104902.75;;;7.60;100.00
64298;BME280;50639;53.270;7.956;2023-02-20T02:11:07;104933.84;;;7.63;100.00
64298;BME280;50639;53.270;7.956;2023-02-20T02:13:35;104928.34;;;7.65;100.00
64298;BME280;50639;53.270;7.956;2023-02-20T02:18:51;104827.53;;;7.64;100.00
64298;BME280;50639;53.270;7.956;2023-02-20T02:24:38;104683.97;;;7.61;100.00
64298;BME280;50639;53.270;7.956;2023-02-20T02:38:16;105025.69;;;7.78;100.00
64298;BME280;50639;53.270;7.956;2023-02-20T02:40:53;104954.19;;;7.78;100.00
64298;BME280;50639;53.270;7.956;2023-02-20T02:46:21;105217.59;;;7.93;100.00
64298;BME280;50639;53.270;7.956;2023-02-20T02:48:58;105151.53;;;7.92;100.00
64298;BME280;50639;53.270;7.956;2023-02-20T02:51:28;104957.19;;;7.86;100.00
64298;BME280;50639;53.270;7.956;2023-02-20T02:54:15;104711.09;;;7.80;100.00
64298;BME280;50639;53.270;7.956;2023-02-20T02:56:43;104756.53;;;7.82;100.00
64298;BME280;50639;53.270;7.956;2023-02-20T02:59:13;104890.94;;;7.88;100.00
64298;BME280;50639;53.270;7.956;2023-02-20T03:01:44;104923.09;;;7.88;100.00
64298;BME280;50639;53.270;7.956;2023-02-20T03:04:12;105074.44;;;7.95;100.00
64298;BME280;50639;53.270;7.956;2023-02-20T03:06:43;105052.16;;;7.95;100.00
64298;BME280;50639;53.270;7.956;2023-02-20T03:09:18;105071.56;;;7.98;100.00
64298;BME280;50639;53.270;7.956;2023-02-20T03:11:45;105082.19;;;8.00;100.00
64298;BME280;50639;53.270;7.956;2023-02-20T03:14:16;105105.25;;;8.02;100.00
64298;BME280;50639;53.270;7.956;2023-02-20T03:19:45;105015.03;;;8.01;100.00
64298;BME280;50639;53.270;7.956;2023-02-20T03:22:27;105164.75;;;8.07;100.00
64298;BME280;50639;53.270;7.956;2023-02-20T03:24:56;104967.66;;;8.02;100.00
64298;BME280;50639;53.270;7.956;2023-02-20T03:30:11;104612.72;;;7.93;100.00
64298;BME280;50639;53.270;7.956;2023-02-20T03:32:42;104691.91;;;7.97;100.00
64298;BME280;50639;53.270;7.956;2023-02-20T03:35:30;104566.19;;;7.94;100.00
64298;BME280;50639;53.270;7.956;2023-02-20T03:38:19;104502.84;;;7.93;100.00
64298;BME280;50639;53.270;7.956;2023-02-20T03:41:05;104462.78;;;7.92;100.00
64298;BME280;50639;53.270;7.956;2023-02-20T03:43:51;104476.03;;;7.93;100.00
64298;BME280;50639;53.270;7.956;2023-02-20T03:46:20;104415.41;;;7.92;100.00
64298;BME280;50639;53.270;7.956;2023-02-20T03:49:11;104391.28;;;7.92;100.00
64298;BME280;50639;53.270;7.956;2023-02-20T03:51:40;104300.41;;;7.89;100.00
64298;BME280;50639;53.270;7.956;2023-02-20T03:54:36;104287.88;;;7.90;100.00
64298;BME280;50639;53.270;7.956;2023-02-20T03:57:12;104283.38;;;7.90;100.00
64298;BME280;50639;53.270;7.956;2023-02-20T03:59:49;104340.38;;;7.92;100.00
64298;BME280;50639;53.270;7.956;2023-02-20T04:02:21;104208.47;;;7.89;100.00
64298;BME280;50639;53.270;7.956;2023-02-20T04:04:52;104157.56;;;7.89;100.00
64298;BME280;50639;53.270;7.956;2023-02-20T04:07:26;104089.00;;;7.86;100.00
64298;BME280;50639;53.270;7.956;2023-02-20T04:09:58;103813.75;;;7.79;100.00
64298;BME280;50639;53.270;7.956;2023-02-20T04:12:37;103666.84;;;7.74;100.00
64298;BME280;50639;53.270;7.956;2023-02-20T04:15:06;103705.91;;;7.77;100.00
64298;BME280;50639;53.270;7.956;2023-02-20T04:17:45;103624.00;;;7.74;100.00
64298;BME280;50639;53.270;7.956;2023-02-20T04:20:13;103627.53;;;7.75;100.00
64298;BME280;50639;53.270;7.956;2023-02-20T04:22:47;103613.28;;;7.74;100.00
64298;BME280;50639;53.270;7.956;2023-02-20T04:25:26;103467.25;;;7.70;100.00
64298;BME280;50639;53.270;7.956;2023-02-20T04:27:56;103622.00;;;7.76;100.00
64298;BME280;50639;53.270;7.956;2023-02-20T04:30:22;103469.78;;;7.72;100.00
64298;BME280;50639;53.270;7.956;2023-02-20T04:32:48;103415.50;;;7.70;100.00
64298;BME280;50639;53.270;7.956;2023-02-20T04:35:16;103417.19;;;7.71;100.00
64298;BME280;50639;53.270;7.956;2023-02-20T04:37:42;103249.91;;;7.65;100.00
64298;BME280;50639;53.270;7.956;2023-02-20T04:40:10;103218.47;;;7.67;100.00
64298;BME280;50639;53.270;7.956;2023-02-20T04:42:36;103068.97;;;7.63;100.00
64298;BME280;50639;53.270;7.956;2023-02-20T04:45:01;103186.34;;;7.67;100.00
64298;BME280;50639;53.270;7.956;2023-02-20T04:47:30;103361.50;;;7.74;100.00
64298;BME280;50639;53.270;7.956;2023-02-20T04:49:55;103247.66;;;7.70;100.00
64298;BME280;50639;53.270;7.956;2023-02-20T04:52:22;103272.44;;;7.72;100.00
64298;BME280;50639;53.270;7.956;2023-02-20T04:54:49;103219.88;;;7.71;100.00
64298;BME280;50639;53.270;7.956;2023-02-20T04:57:16;103164.63;;;7.70;100.00
64298;BME280;50639;53.270;7.956;2023-02-20T04:59:42;103173.50;;;7.71;100.00
64298;BME280;50639;53.270;7.956;2023-02-20T05:02:09;103129.81;;;7.70;100.00
64298;BME280;50639;53.270;7.956;2023-02-20T05:04:34;103035.41;;;7.68;100.00
64298;BME280;50639;53.270;7.956;2023-02-20T05:07:01;103027.22;;;7.70;100.00
64298;BME280;50639;53.270;7.956;2023-02-20T05:09:26;103138.22;;;7.75;100.00
64298;BME280;50639;53.270;7.956;2023-02-20T05:11:52;103154.16;;;7.77;100.00
64298;BME280;50639;53.270;7.956;2023-02-20T05:14:19;103088.03;;;7.77;100.00
64298;BME280;50639;53.270;7.956;2023-02-20T05:16:45;103125.22;;;7.80;100.00
64298;BME280;50639;53.270;7.956;2023-02-20T05:19:12;103114.53;;;7.80;100.00
64298;BME280;50639;53.270;7.956;2023-02-20T05:21:41;103142.84;;;7.83;100.00
64298;BME280;50639;53.270;7.956;2023-02-20T05:24:25;103191.25;;;7.89;100.00
64298;BME280;50639;53.270;7.956;2023-02-20T05:26:53;103248.91;;;7.93;100.00
64298;BME280;50639;53.270;7.956;2023-02-20T05:29:19;103240.56;;;7.96;100.00
64298;BME280;50639;53.270;7.956;2023-02-20T05:31:45;103287.50;;;8.00;100.00
64298;BME280;50639;53.270;7.956;2023-02-20T05:34:10;103313.69;;;8.06;100.00
64298;BME280;50639;53.270;7.956;2023-02-20T05:36:35;103222.88;;;8.03;100.00
64298;BME280;50639;53.270;7.956;2023-02-20T05:39:02;103309.72;;;8.10;100.00
64298;BME280;50639;53.270;7.956;2023-02-20T05:41:27;103253.59;;;8.09;100.00
64298;BME280;50639;53.270;7.956;2023-02-20T05:43:53;103178.56;;;8.09;100.00
64298;BME280;50639;53.270;7.956;2023-02-20T05:46:22;103219.97;;;8.14;100.00
64298;BME280;50639;53.270;7.956;2023-02-20T05:48:49;103136.22;;;8.12;100.00
64298;BME280;50639;53.270;7.956;2023-02-20T05:51:23;103096.88;;;8.13;100.00
64298;BME280;50639;53.270;7.956;2023-02-20T05:53:49;103076.13;;;8.15;100.00
64298;BME280;50639;53.270;7.956;2023-02-20T05:56:15;103098.94;;;8.19;100.00
64298;BME280;50639;53.270;7.956;2023-02-20T05:58:42;103150.22;;;8.24;100.00
64298;BME280;50639;53.270;7.956;2023-02-20T06:01:08;103085.03;;;8.23;100.00
64298;BME280;50639;53.270;7.956;2023-02-20T06:03:34;103001.28;;;8.21;100.00
64298;BME280;50639;53.270;7.956;2023-02-20T06:05:59;103042.88;;;8.25;100.00
64298;BME280;50639;53.270;7.956;2023-02-20T06:08:25;103064.19;;;8.27;100.00
64298;BME280;50639;53.270;7.956;2023-02-20T06:10:50;103016.75;;;8.27;100.00
64298;BME280;50639;53.270;7.956;2023-02-20T06:13:16;103009.38;;;8.29;100.00
64298;BME280;50639;53.270;7.956;2023-02-20T06:15:41;103038.56;;;8.32;100.00
64298;BME280;50639;53.270;7.956;2023-02-20T06:18:06;103002.03;;;8.31;100.00
64298;BME280;50639;53.270;7.956;2023-02-20T06:20:32;103026.53;;;8.36;100.00
64298;BME280;50639;53.270;7.956;2023-02-20T06:22:58;103019.16;;;8.38;100.00
64298;BME280;50639;53.270;7.956;2023-02-20T06:25:23;103037.78;;;8.40;100.00
64298;BME280;50639;53.270;7.956;2023-02-20T06:27:48;103053.56;;;8.43;100.00
64298;BME280;50639;53.270;7.956;2023-02-20T06:30:14;103017.69;;;8.44;100.00
64298;BME280;50639;53.270;7.956;2023-02-20T06:32:39;103037.81;;;8.48;100.00
64298;BME280;50639;53.270;7.956;2023-02-20T06:35:05;102861.38;;;8.44;100.00
64298;BME280;50639;53.270;7.956;2023-02-20T06:37:31;102808.75;;;8.43;100.00
64298;BME280;50639;53.270;7.956;2023-02-20T06:39:56;102912.66;;;8.49;100.00
64298;BME280;50639;53.270;7.956;2023-02-20T06:42:22;102923.06;;;8.52;100.00
64298;BME280;50639;53.270;7.956;2023-02-20T06:44:47;102882.66;;;8.53;100.00
64298;BME280;50639;53.270;7.956;2023-02-20T06:47:14;102782.81;;;8.51;100.00
64298;BME280;50639;53.270;7.956;2023-02-20T06:49:39;102835.94;;;8.56;100.00
64298;BME280;50639;53.270;7.956;2023-02-20T06:52:06;102885.03;;;8.64;100.00
64298;BME280;50639;53.270;7.956;2023-02-20T06:54:32;102825.22;;;8.64;100.00
64298;BME280;50639;53.270;7.956;2023-02-20T06:56:59;102800.06;;;8.65;100.00
64298;BME280;50639;53.270;7.956;2023-02-20T06:59:24;102773.75;;;8.68;100.00
64298;BME280;50639;53.270;7.956;2023-02-20T07:01:50;102735.88;;;8.71;100.00
64298;BME280;50639;53.270;7.956;2023-02-20T07:04:21;102773.59;;;8.78;100.00
64298;BME280;50639;53.270;7.956;2023-02-20T07:06:46;102654.91;;;8.76;100.00
64298;BME280;50639;53.270;7.956;2023-02-20T07:09:13;102725.31;;;8.78;100.00
64298;BME280;50639;53.270;7.956;2023-02-20T07:11:39;102601.09;;;8.77;100.00
64298;BME280;50639;53.270;7.956;2023-02-20T07:14:04;102578.78;;;8.77;100.00
64298;BME280;50639;53.270;7.956;2023-02-20T07:16:30;102653.19;;;8.83;100.00
64298;BME280;50639;53.270;7.956;2023-02-20T07:18:56;102705.31;;;8.88;100.00
64298;BME280;50639;53.270;7.956;2023-02-20T07:21:22;102614.13;;;8.88;100.00
64298;BME280;50639;53.270;7.956;2023-02-20T07:23:48;102625.34;;;8.92;100.00
64298;BME280;50639;53.270;7.956;2023-02-20T07:26:18;102634.88;;;8.94;100.00
64298;BME280;50639;53.270;7.956;2023-02-20T07:28:44;102670.94;;;9.00;100.00
64298;BME280;50639;53.270;7.956;2023-02-20T07:31:10;102580.72;;;8.99;100.00
64298;BME280;50639;53.270;7.956;2023-02-20T07:33:35;102599.16;;;9.02;100.00
64298;BME280;50639;53.270;7.956;2023-02-20T07:36:02;102713.66;;;9.09;100.00
64298;BME280;50639;53.270;7.956;2023-02-20T07:38:28;102598.47;;;9.08;100.00
64298;BME280;50639;53.270;7.956;2023-02-20T07:40:53;102511.94;;;9.06;100.00
64298;BME280;50639;53.270;7.956;2023-02-20T07:43:19;102591.06;;;9.10;100.00
64298;BME280;50639;53.270;7.956;2023-02-20T07:45:48;102586.19;;;9.13;100.00
64298;BME280;50639;53.270;7.956;2023-02-20T07:48:14;102658.78;;;9.20;100.00
64298;BME280;50639;53.270;7.956;2023-02-20T07:50:39;102605.97;;;9.20;100.00
64298;BME280;50639;53.270;7.956;2023-02-20T07:53:05;102685.59;;;9.28;100.00
64298;BME280;50639;53.270;7.956;2023-02-20T07:55:30;102585.63;;;9.26;100.00
64298;BME280;50639;53.270;7.956;2023-02-20T07:57:56;102666.13;;;9.34;100.00
64298;BME280;50639;53.270;7.956;2023-02-20T08:00:24;102477.41;;;9.25;100.00
64298;BME280;50639;53.270;7.956;2023-02-20T08:02:49;102393.56;;;9.23;100.00
64298;BME280;50639;53.270;7.956;2023-02-20T08:05:15;102481.59;;;9.28;100.00
64298;BME280;50639;53.270;7.956;2023-02-20T08:07:47;102512.78;;;9.29;100.00
64298;BME280;50639;53.270;7.956;2023-02-20T08:10:13;102464.66;;;9.27;100.00
64298;BME280;50639;53.270;7.956;2023-02-20T08:12:39;102382.63;;;9.25;100.00
64298;BME280;50639;53.270;7.956;2023-02-20T08:15:05;102487.44;;;9.32;100.00
64298;BME280;50639;53.270;7.956;2023-02-20T08:17:31;102431.25;;;9.30;100.00
64298;BME280;50639;53.270;7.956;2023-02-20T08:19:56;102489.94;;;9.33;100.00
64298;BME280;50639;53.270;7.956;2023-02-20T08:22:21;102379.06;;;9.33;100.00
64298;BME280;50639;53.270;7.956;2023-02-20T08:24:47;102413.78;;;9.34;100.00
64298;BME280;50639;53.270;7.956;2023-02-20T08:27:12;102442.94;;;9.37;100.00
64298;BME280;50639;53.270;7.956;2023-02-20T08:29:38;102367.13;;;9.35;100.00
64298;BME280;50639;53.270;7.956;2023-02-20T08:32:03;102457.84;;;9.40;100.00
64298;BME280;50639;53.270;7.956;2023-02-20T08:34:29;102500.28;;;9.44;100.00
64298;BME280;50639;53.270;7.956;2023-02-20T08:36:54;102527.78;;;9.46;100.00
64298;BME280;50639;53.270;7.956;2023-02-20T08:39:19;102586.31;;;9.51;100.00
64298;BME280;50639;53.270;7.956;2023-02-20T08:41:46;102548.53;;;9.52;100.00
64298;BME280;50639;53.270;7.956;2023-02-20T08:44:12;102529.75;;;9.52;100.00
64298;BME280;50639;53.270;7.956;2023-02-20T08:46:45;102531.25;;;9.55;100.00
64298;BME280;50639;53.270;7.956;2023-02-20T08:49:11;102535.78;;;9.54;100.00
64298;BME280;50639;53.270;7.956;2023-02-20T08:51:36;102522.16;;;9.56;100.00
64298;BME280;50639;53.270;7.956;2023-02-20T08:54:02;102514.75;;;9.58;100.00
64298;BME280;50639;53.270;7.956;2023-02-20T08:56:28;102571.63;;;9.61;100.00
64298;BME280;50639;53.270;7.956;2023-02-20T08:58:54;102588.41;;;9.63;100.00
64298;BME280;50639;53.270;7.956;2023-02-20T09:01:19;102612.22;;;9.66;100.00
64298;BME280;50639;53.270;7.956;2023-02-20T09:03:45;102559.50;;;9.65;100.00
64298;BME280;50639;53.270;7.956;2023-02-20T09:06:10;102610.00;;;9.70;100.00
64298;BME280;50639;53.270;7.956;2023-02-20T09:08:36;102661.56;;;9.73;100.00
64298;BME280;50639;53.270;7.956;2023-02-20T09:11:01;102712.22;;;9.76;100.00
64298;BME280;50639;53.270;7.956;2023-02-20T09:13:27;102641.72;;;9.74;100.00
64298;BME280;50639;53.270;7.956;2023-02-20T09:15:52;102753.84;;;9.80;100.00
64298;BME280;50639;53.270;7.956;2023-02-20T09:18:18;102820.50;;;9.85;100.00
64298;BME280;50639;53.270;7.956;2023-02-20T09:20:44;102827.38;;;9.87;100.00
64298;BME280;50639;53.270;7.956;2023-02-20T09:23:09;102870.00;;;9.90;100.00
64298;BME280;50639;53.270;7.956;2023-02-20T09:25:35;102938.50;;;9.94;100.00
64298;BME280;50639;53.270;7.956;2023-02-20T09:28:00;102863.44;;;9.93;100.00
64298;BME280;50639;53.270;7.956;2023-02-20T09:30:26;102798.13;;;9.92;100.00
64298;BME280;50639;53.270;7.956;2023-02-20T09:32:52;102751.78;;;9.90;100.00
64298;BME280;50639;53.270;7.956;2023-02-20T09:35:25;102724.91;;;9.90;100.00
64298;BME280;50639;53.270;7.956;2023-02-20T09:37:51;102790.06;;;9.92;100.00
64298;BME280;50639;53.270;7.956;2023-02-20T09:40:20;102776.63;;;9.92;100.00
64298;BME280;50639;53.270;7.956;2023-02-20T09:43:00;102680.25;;;9.89;100.00
64298;BME280;50639;53.270;7.956;2023-02-20T09:45:32;102798.78;;;9.94;100.00
64298;BME280;50639;53.270;7.956;2023-02-20T09:56:05;102890.13;;;10.02;100.00
64298;BME280;50639;53.270;7.956;2023-02-20T09:58:39;102945.19;;;10.06;100.00
64298;BME280;50639;53.270;7.956;2023-02-20T10:01:06;102935.28;;;10.07;100.00
64298;BME280;50639;53.270;7.956;2023-02-20T10:03:38;102825.59;;;10.02;100.00
64298;BME280;50639;53.270;7.956;2023-02-20T10:06:29;102975.44;;;10.08;100.00
64298;BME280;50639;53.270;7.956;2023-02-20T10:08:55;103069.03;;;10.13;100.00
64298;BME280;50639;53.270;7.956;2023-02-20T10:11:28;102989.25;;;10.14;100.00
64298;BME280;50639;53.270;7.956;2023-02-20T10:14:24;102998.97;;;10.15;100.00
64298;BME280;50639;53.270;7.956;2023-02-20T10:17:18;102978.50;;;10.14;100.00
64298;BME280;50639;53.270;7.956;2023-02-20T10:25:30;103076.25;;;10.21;100.00
64298;BME280;50639;53.270;7.956;2023-02-20T10:28:04;103168.00;;;10.26;100.00
64298;BME280;50639;53.270;7.956;2023-02-20T10:30:34;103194.53;;;10.29;100.00
64298;BME280;50639;53.270;7.956;2023-02-20T10:33:22;103236.41;;;10.31;100.00
64298;BME280;50639;53.270;7.956;2023-02-20T10:35:54;103209.50;;;10.31;100.00
64298;BME280;50639;53.270;7.956;2023-02-20T10:38:27;103300.44;;;10.36;100.00
64298;BME280;50639;53.270;7.956;2023-02-20T10:41:11;103156.56;;;10.32;100.00
64298;BME280;50639;53.270;7.956;2023-02-20T10:43:43;103154.88;;;10.31;100.00
64298;BME280;50639;53.270;7.956;2023-02-20T10:46:28;103118.94;;;10.32;100.00
64298;BME280;50639;53.270;7.956;2023-02-20T10:48:58;103128.66;;;10.33;100.00
64298;BME280;50639;53.270;7.956;2023-02-20T10:51:31;103300.09;;;10.39;100.00
64298;BME280;50639;53.270;7.956;2023-02-20T10:54:03;103248.19;;;10.38;100.00
64298;BME280;50639;53.270;7.956;2023-02-20T10:56:59;103411.59;;;10.44;100.00
64298;BME280;50639;53.270;7.956;2023-02-20T10:59:43;103480.03;;;10.50;100.00
64298;BME280;50639;53.270;7.956;2023-02-20T11:02:20;103293.25;;;10.44;100.00
64298;BME280;50639;53.270;7.956;2023-02-20T11:04:51;103353.91;;;10.47;100.00
64298;BME280;50639;53.270;7.956;2023-02-20T11:07:19;103241.28;;;10.44;100.00
64298;BME280;50639;53.270;7.956;2023-02-20T11:09:46;103489.63;;;10.52;100.00
64298;BME280;50639;53.270;7.956;2023-02-20T11:12:24;103474.16;;;10.54;100.00
64298;BME280;50639;53.270;7.956;2023-02-20T11:14:55;103583.84;;;10.60;100.00
64298;BME280;50639;53.270;7.956;2023-02-20T11:17:26;103528.31;;;10.59;100.00
64298;BME280;50639;53.270;7.956;2023-02-20T11:19:59;103494.38;;;10.58;100.00
64298;BME280;50639;53.270;7.956;2023-02-20T11:22:43;103582.81;;;10.61;100.00
64298;BME280;50639;53.270;7.956;2023-02-20T11:25:26;103753.94;;;10.72;100.00
64298;BME280;50639;53.270;7.956;2023-02-20T11:27:56;103742.16;;;10.73;100.00
64298;BME280;50639;53.270;7.956;2023-02-20T11:30:29;103732.91;;;10.75;100.00
64298;BME280;50639;53.270;7.956;2023-02-20T11:33:01;103654.19;;;10.73;100.00
64298;BME280;50639;53.270;7.956;2023-02-20T11:35:31;103780.22;;;10.78;100.00
64298;BME280;50639;53.270;7.956;2023-02-20T11:40:46;103534.41;;;10.69;100.00
64298;BME280;50639;53.270;7.956;2023-02-20T11:45:38;103700.47;;;10.77;100.00
64298;BME280;50639;53.270;7.956;2023-02-20T11:48:07;103745.91;;;10.80;100.00
64298;BME280;50639;53.270;7.956;2023-02-20T11:53:05;103594.81;;;10.75;100.00
64298;BME280;50639;53.270;7.956;2023-02-20T11:55:32;103510.03;;;10.71;100.00
64298;BME280;50639;53.270;7.956;2023-02-20T11:57:58;103752.97;;;10.81;100.00
64298;BME280;50639;53.270;7.956;2023-02-20T12:00:43;103769.13;;;10.81;100.00
64298;BME280;50639;53.270;7.956;2023-02-20T12:03:18;103793.34;;;10.81;100.00
64298;BME280;50639;53.270;7.956;2023-02-20T12:05:46;103788.81;;;10.81;100.00
64298;BME280;50639;53.270;7.956;2023-02-20T12:08:35;103734.28;;;10.79;100.00
64298;BME280;50639;53.270;7.956;2023-02-20T12:11:23;103786.97;;;10.82;100.00
64298;BME280;50639;53.270;7.956;2023-02-20T12:13:52;103605.75;;;10.73;100.00
64298;BME280;50639;53.270;7.956;2023-02-20T12:16:30;103613.66;;;10.75;100.00
64298;BME280;50639;53.270;7.956;2023-02-20T12:19:07;103581.34;;;10.75;100.00
64298;BME280;50639;53.270;7.956;2023-02-20T12:24:39;103804.81;;;10.83;100.00
64298;BME280;50639;53.270;7.956;2023-02-20T12:27:29;103936.78;;;10.91;100.00
64298;BME280;50639;53.270;7.956;2023-02-20T12:30:17;103968.94;;;10.93;100.00
64298;BME280;50639;53.270;7.956;2023-02-20T12:32:57;103927.56;;;10.93;100.00
64298;BME280;50639;53.270;7.956;2023-02-20T12:35:32;103967.66;;;10.97;100.00
64298;BME280;50639;53.270;7.956;2023-02-20T12:40:44;103859.25;;;10.95;100.00
64298;BME280;50639;53.270;7.956;2023-02-20T12:43:21;103874.41;;;10.96;100.00
64298;BME280;50639;53.270;7.956;2023-02-20T12:46:16;103901.19;;;10.97;100.00
64298;BME280;50639;53.270;7.956;2023-02-20T12:57:13;103821.09;;;10.99;100.00
64298;BME280;50639;53.270;7.956;2023-02-20T13:00:27;103893.31;;;11.04;100.00
64298;BME280;50639;53.270;7.956;2023-02-20T13:02:32;103701.09;;;10.97;100.00
64298;BME280;50639;53.270;7.956;2023-02-20T13:05:01;103658.88;;;10.97;100.00
64298;BME280;50639;53.270;7.956;2023-02-20T13:07:38;103850.91;;;11.06;100.00
64298;BME280;50639;53.270;7.956;2023-02-20T13:10:12;103759.53;;;11.04;100.00
64298;BME280;50639;53.270;7.956;2023-02-20T13:12:40;103562.75;;;10.98;100.00
64298;BME280;50639;53.270;7.956;2023-02-20T13:15:19;103733.44;;;11.05;100.00
64298;BME280;50639;53.270;7.956;2023-02-20T13:20:40;103785.97;;;11.09;100.00
64298;BME280;50639;53.270;7.956;2023-02-20T13:30:38;103712.81;;;11.13;100.00
64298;BME280;50639;53.270;7.956;2023-02-20T13:33:21;103670.53;;;11.14;100.00
64298;BME280;50639;53.270;7.956;2023-02-20T13:35:56;103600.69;;;11.12;100.00
64298;BME280;50639;53.270;7.956;2023-02-20T13:38:26;103916.06;;;11.27;100.00
64298;BME280;50639;53.270;7.956;2023-02-20T13:43:34;103863.38;;;11.32;100.00
64298;BME280;50639;53.270;7.956;2023-02-20T13:59:09;103852.66;;;11.40;100.00
64298;BME280;50639;53.270;7.956;2023-02-20T14:04:20;103686.78;;;11.38;100.00
64298;BME280;50639;53.270;7.956;2023-02-20T14:06:51;103711.72;;;11.40;100.00
64298;BME280;50639;53.270;7.956;2023-02-20T14:09:23;103660.69;;;11.38;100.00
64298;BME280;50639;53.270;7.956;2023-02-20T14:11:53;103894.84;;;11.49;100.00
64298;BME280;50639;53.270;7.956;2023-02-20T14:14:29;103676.19;;;11.44;100.00
64298;BME280;50639;53.270;7.956;2023-02-20T14:17:13;103677.91;;;11.45;100.00
64298;BME280;50639;53.270;7.956;2023-02-20T14:19:42;103738.69;;;11.48;100.00
64298;BME280;50639;53.270;7.956;2023-02-20T14:27:31;103569.28;;;11.45;100.00
64298;BME280;50639;53.270;7.956;2023-02-20T14:30:10;103633.59;;;11.48;100.00
64298;BME280;50639;53.270;7.956;2023-02-20T14:32:37;103587.97;;;11.46;100.00
64298;BME280;50639;53.270;7.956;2023-02-20T14:40:02;103599.41;;;11.48;100.00
64298;BME280;50639;53.270;7.956;2023-02-20T14:42:29;103632.44;;;11.50;100.00